Chlef Aboubakr Belkaid International Airport

DAOI · Chlef, 阿尔及利亚

罗盘
风向 的 风向 260° Ech Cheliff Airport 7/25
风: 4 kt, 2 beaufort

4 kt

1 kt
改变
0 ft 6.000 12.000 18.000 24.000 30.000
Cloud Cloud Cloud Cloud
SCT 2.600
Cloud Cloud Cloud Cloud
SCT 23.300
METAR DAOI 191000Z 26004KT 9999 SCT026 SCT233 27/13 Q1016

METAR Ech Cheliff Airport - DAOI/CFK

Ech Cheliff Airport是,阿尔及利亚中的中型机场。 该机场位于纬度36,21256和经度1,33154。 该机场有一条跑道: 7/25. 本场的ICAO机场代码为DAOI。 该机场的IATA代码为CFK。 机场在Alger FIR中。

该航空气象观测是针对Ech Cheliff Airport在2024年6月19日 11:00, 当地时间进行的。

机场观察

风向为260°,速度为4 kt。

可见度为10 km 或者更多。

有疏云,零星散落的云朵在2.600 ft的高度 和 疏云,零星散落的云朵在23.300 ft的高度。 没有观察到天花板。

温度和风寒是27 °C。 热指数为27。 露点为13 °C,相对湿度为42%。 海平面上的气压为1016 hPa (QNH)。

白天

今天,太阳从05:37升起,在20:14降落。 这适用于Ech Cheliff Airport,世界夏令时可能有所不同。 当地时间与世界标准时间之间的时差为+1 小时。 夏令时目前正在进行中。

公司介绍

我们没有关于这个机场的公司信息。

体会

到Vliegles.nl去找飞行课程,跳伞和其他飞行体验。 浏览页面,了解Ech Cheliff Airport附近所有可用的活动。 你也可以使用搜索功能来寻找你所在地附近的特定飞行课程、跳伞或其他飞行体验。

跑道

Id 标题 侧风 逆风 侧风 %
7/25 066°-246° 4 kt 24 %

逆风成分最大的方向会被突出显示,并用于横风计算。 这并不一定意味着这个方向在使用。

乌云

2.600 ft SCT 疏云,零星散落的云朵
23.300 ft SCT 疏云,零星散落的云朵

温度 & 天气

温度 27 °C
露点 13 °C
相对湿度 42%
热度指数 27 °C
Kp-index 1 (0-9)

白天

日出
05:37
中午
12:56
日落
20:14 (8:50)

小工具

你想在你的网站上有一个关于Ech Cheliff Airport的当前航空天气(METAR)的小部件吗?

显示HTML代码
报告变更